createdAt,value
2018-01-22T00:00:17.409Z,55.77
2018-01-22T00:02:43.412Z,55.60
2018-01-22T00:05:09.358Z,64.70
2018-01-22T00:07:35.334Z,54.60
2018-01-22T00:10:02.076Z,50.97
2018-01-22T00:12:28.049Z,57.07
2018-01-22T00:14:54.010Z,48.63
2018-01-22T00:17:19.972Z,57.33
2018-01-22T00:19:45.975Z,53.90
2018-01-22T00:22:11.930Z,49.67
2018-01-22T00:24:37.915Z,45.83
2018-01-22T00:27:03.858Z,49.17
2018-01-22T00:29:29.796Z,52.37
2018-01-22T00:31:55.782Z,45.20
2018-01-22T00:34:21.737Z,53.67
2018-01-22T00:36:48.484Z,38.77
2018-01-22T00:39:14.429Z,57.67
2018-01-22T00:41:41.173Z,44.97
2018-01-22T00:44:07.125Z,51.60
2018-01-22T00:46:33.916Z,49.80
2018-01-22T00:48:59.894Z,47.77
2018-01-22T00:51:25.872Z,44.50
2018-01-22T00:53:51.813Z,49.07
2018-01-22T00:56:17.757Z,45.33
2018-01-22T00:58:43.729Z,44.17
2018-01-22T01:01:09.706Z,46.07
2018-01-22T01:03:35.649Z,41.00
2018-01-22T01:06:01.653Z,42.37
2018-01-22T01:08:27.621Z,52.43
2018-01-22T01:10:53.619Z,55.13
2018-01-22T01:13:19.585Z,51.77
2018-01-22T01:15:45.566Z,52.80
2018-01-22T01:18:11.517Z,50.73
2018-01-22T01:20:39.008Z,44.13
2018-01-22T01:23:05.800Z,45.97
2018-01-22T01:25:31.757Z,50.83
2018-01-22T01:27:57.705Z,44.90
2018-01-22T01:30:23.677Z,47.67
2018-01-22T01:32:50.365Z,42.20
2018-01-22T01:35:16.389Z,45.67
2018-01-22T01:37:42.328Z,43.67
2018-01-22T01:40:08.297Z,40.93
2018-01-22T01:42:34.244Z,47.10
2018-01-22T01:45:00.317Z,45.10
2018-01-22T01:47:26.266Z,40.33
2018-01-22T01:49:52.204Z,45.63
2018-01-22T01:52:18.156Z,44.23
2018-01-22T01:54:44.101Z,39.03
2018-01-22T01:57:10.092Z,51.13
2018-01-22T01:59:36.037Z,41.07
2018-01-22T02:02:02.070Z,41.70
2018-01-22T02:04:28.052Z,46.50
2018-01-22T02:06:54.008Z,46.30
2018-01-22T02:09:19.987Z,43.27
2018-01-22T02:11:45.996Z,43.70
2018-01-22T02:14:12.749Z,48.57
2018-01-22T02:16:39.462Z,41.63
2018-01-22T02:19:05.472Z,39.70
2018-01-22T02:21:31.488Z,41.93
2018-01-22T02:23:57.448Z,42.77
2018-01-22T02:26:23.424Z,45.67
2018-01-22T02:28:49.408Z,46.70
2018-01-22T02:31:15.376Z,44.17
2018-01-22T02:33:41.352Z,44.50
2018-01-22T02:36:08.032Z,43.57
2018-01-22T02:38:34.033Z,31.03
2018-01-22T02:41:00.761Z,37.00
2018-01-22T02:43:26.708Z,38.10
2018-01-22T02:45:52.681Z,35.60
2018-01-22T02:48:18.647Z,41.20
2018-01-22T02:50:44.637Z,32.03
2018-01-22T02:53:10.629Z,39.27
2018-01-22T02:55:36.605Z,33.50
2018-01-22T02:58:03.368Z,31.27
2018-01-22T03:00:30.082Z,33.20
2018-01-22T03:02:56.097Z,30.67
2018-01-22T03:05:22.077Z,31.30
2018-01-22T03:07:48.042Z,30.13
2018-01-22T03:10:14.053Z,26.53
2018-01-22T03:12:39.988Z,30.77
2018-01-22T03:15:05.957Z,31.30
2018-01-22T03:17:31.942Z,32.80
2018-01-22T03:19:57.925Z,27.87
2018-01-22T03:22:23.896Z,28.90
2018-01-22T03:24:49.876Z,29.83
2018-01-22T03:27:16.570Z,32.50
2018-01-22T03:29:42.518Z,30.73
2018-01-22T03:32:08.488Z,27.70
2018-01-22T03:34:34.456Z,30.47
2018-01-22T03:37:00.445Z,30.80
2018-01-22T03:39:26.420Z,27.17
2018-01-22T03:41:52.360Z,29.43
2018-01-22T03:44:18.349Z,31.93
2018-01-22T03:46:44.396Z,29.87
2018-01-22T03:49:10.337Z,28.70
2018-01-22T03:51:36.277Z,25.77
2018-01-22T03:54:02.988Z,27.23
2018-01-22T03:56:29.225Z,26.93
2018-01-22T03:58:55.206Z,29.20
2018-01-22T04:01:21.147Z,29.00
2018-01-22T04:03:47.902Z,32.93
2018-01-22T04:06:14.608Z,30.57
2018-01-22T04:08:40.557Z,23.67
2018-01-22T04:11:06.533Z,30.33
2018-01-22T04:13:33.224Z,29.50
2018-01-22T04:15:59.208Z,26.33
2018-01-22T04:18:25.961Z,27.10
2018-01-22T04:20:51.906Z,28.90
2018-01-22T04:23:18.657Z,26.40
2018-01-22T04:25:45.376Z,28.60
2018-01-22T04:28:11.303Z,35.40
2018-01-22T04:30:37.282Z,26.90
2018-01-22T04:33:03.977Z,30.33
2018-01-22T04:35:29.916Z,30.90
2018-01-22T04:37:55.901Z,28.77
2018-01-22T04:40:22.625Z,33.97
2018-01-22T04:42:48.790Z,33.37
2018-01-22T04:45:15.525Z,29.17
2018-01-22T04:47:41.467Z,27.00
2018-01-22T04:50:07.444Z,22.93
2018-01-22T04:52:33.420Z,30.80
2018-01-22T04:54:59.396Z,27.70
2018-01-22T04:57:26.110Z,31.50
2018-01-22T04:59:52.049Z,30.17
2018-01-22T05:02:18.080Z,27.60
2018-01-22T05:04:44.066Z,35.63
2018-01-22T05:07:10.053Z,33.80
2018-01-22T05:09:36.028Z,29.30
2018-01-22T05:12:02.836Z,34.07
2018-01-22T05:14:28.812Z,32.57
2018-01-22T05:16:55.492Z,29.93
2018-01-22T05:19:21.476Z,29.63
2018-01-22T05:21:47.461Z,34.90
2018-01-22T05:24:14.152Z,35.20
2018-01-22T05:26:40.125Z,30.60
2018-01-22T05:29:06.841Z,32.80
2018-01-22T05:31:32.828Z,32.33
2018-01-22T05:33:59.503Z,30.60
2018-01-22T05:36:31.713Z,34.47
2018-01-22T05:38:57.656Z,27.40
2018-01-22T05:41:23.592Z,29.07
2018-01-22T05:43:49.560Z,34.40
2018-01-22T05:46:16.295Z,29.00
2018-01-22T05:48:42.284Z,34.47
2018-01-22T05:51:08.249Z,32.30
2018-01-22T05:53:34.224Z,31.73
2018-01-22T05:56:00.908Z,31.53
2018-01-22T05:58:26.893Z,35.93
2018-01-22T06:00:52.850Z,22.00
2018-01-22T06:03:19.589Z,26.13
2018-01-22T06:05:46.357Z,27.33
2018-01-22T06:08:13.104Z,29.00
2018-01-22T06:10:39.800Z,26.43
2018-01-22T06:13:05.744Z,26.40
2018-01-22T06:15:31.738Z,25.33
2018-01-22T06:17:57.687Z,24.80
2018-01-22T06:20:23.628Z,25.23
2018-01-22T06:22:49.629Z,27.70
2018-01-22T06:25:16.381Z,25.93
2018-01-22T06:27:43.100Z,21.50
2018-01-22T06:30:09.045Z,27.07
2018-01-22T06:32:34.988Z,25.90
2018-01-22T06:35:00.968Z,25.00
2018-01-22T06:37:26.904Z,23.83
2018-01-22T06:39:52.856Z,26.03
2018-01-22T06:42:18.844Z,28.93
2018-01-22T06:44:45.581Z,26.30
2018-01-22T06:47:11.562Z,21.93
2018-01-22T06:49:37.528Z,25.30
2018-01-22T06:52:03.472Z,25.27
2018-01-22T06:54:29.444Z,23.27
2018-01-22T06:56:56.125Z,23.17
2018-01-22T06:59:22.101Z,29.00
2018-01-22T07:01:48.079Z,23.83
2018-01-22T07:04:15.553Z,22.53
2018-01-22T07:06:41.557Z,27.80
2018-01-22T07:09:07.527Z,23.27
2018-01-22T07:11:33.550Z,27.87
2018-01-22T07:14:00.281Z,19.60
2018-01-22T07:16:26.259Z,25.90
2018-01-22T07:18:52.245Z,20.80
2018-01-22T07:21:18.219Z,25.47
2018-01-22T07:23:44.213Z,22.17
2018-01-22T07:26:10.178Z,27.23
2018-01-22T07:28:36.897Z,24.53
2018-01-22T07:31:02.893Z,22.43
2018-01-22T07:33:28.844Z,28.60
2018-01-22T07:35:54.790Z,28.13
2018-01-22T07:38:20.789Z,25.63
2018-01-22T07:40:47.501Z,30.17
2018-01-22T07:43:13.450Z,29.13
2018-01-22T07:45:39.417Z,24.20
2018-01-22T07:48:05.357Z,33.60
2018-01-22T07:50:31.324Z,28.23
2018-01-22T07:52:57.264Z,24.90
2018-01-22T07:55:23.240Z,26.33
2018-01-22T07:57:49.965Z,31.93
2018-01-22T08:00:15.941Z,30.77
2018-01-22T08:02:42.664Z,29.37
2018-01-22T08:05:08.629Z,30.10
2018-01-22T08:07:43.447Z,29.07
2018-01-22T08:10:09.443Z,27.03
2018-01-22T08:12:35.442Z,31.17
2018-01-22T08:15:02.226Z,29.47
2018-01-22T08:17:28.208Z,29.97
2018-01-22T08:19:54.157Z,26.07
2018-01-22T08:22:20.915Z,31.00
2018-01-22T08:24:47.634Z,28.77
2018-01-22T08:27:13.613Z,25.80
2018-01-22T08:29:40.302Z,26.67
2018-01-22T08:32:06.316Z,28.60
2018-01-22T08:34:32.268Z,28.73
2018-01-22T08:36:58.225Z,29.53
2018-01-22T08:39:24.212Z,27.70
2018-01-22T08:41:50.152Z,27.60
2018-01-22T08:44:16.130Z,30.20
2018-01-22T08:46:42.086Z,29.53
2018-01-22T08:49:08.073Z,32.67
2018-01-22T08:51:34.022Z,31.77
2018-01-22T08:53:59.968Z,28.57
2018-01-22T08:56:25.945Z,31.33
2018-01-22T08:58:52.633Z,28.00
2018-01-22T09:01:18.630Z,26.83
2018-01-22T09:03:45.341Z,30.30
2018-01-22T09:06:11.341Z,25.03
2018-01-22T09:08:37.316Z,27.43
2018-01-22T09:11:03.257Z,34.40
2018-01-22T09:13:29.208Z,23.27
2018-01-22T09:15:55.180Z,28.37
2018-01-22T09:18:21.138Z,25.37
2018-01-22T09:20:47.137Z,28.43
2018-01-22T09:23:13.813Z,30.00
2018-01-22T09:25:39.788Z,27.37
2018-01-22T09:28:05.753Z,30.67
2018-01-22T09:30:32.477Z,26.50
2018-01-22T09:32:58.424Z,24.03
2018-01-22T09:35:24.371Z,23.90
2018-01-22T09:37:51.144Z,24.77
2018-01-22T09:40:17.113Z,28.60
2018-01-22T09:42:43.053Z,23.77
2018-01-22T09:45:09.039Z,29.93
2018-01-22T09:47:42.793Z,22.60
2018-01-22T09:50:08.781Z,21.10
2018-01-22T09:52:34.779Z,18.70
2018-01-22T09:55:00.769Z,24.33
2018-01-22T09:57:27.445Z,24.50
2018-01-22T09:59:53.425Z,21.77
2018-01-22T10:02:19.374Z,21.87
2018-01-22T10:04:45.329Z,25.67
2018-01-22T10:07:12.045Z,19.80
2018-01-22T10:09:38.020Z,19.60
2018-01-22T10:12:04.858Z,22.07
2018-01-22T10:14:30.806Z,21.97
2018-01-22T10:16:57.501Z,26.53
2018-01-22T10:19:23.513Z,25.20
2018-01-22T10:21:49.476Z,19.73
2018-01-22T10:24:15.490Z,21.23
2018-01-22T10:26:41.447Z,21.40
2018-01-22T10:29:07.395Z,27.20
2018-01-22T10:31:33.390Z,26.83
2018-01-22T10:33:59.329Z,27.50
2018-01-22T10:36:25.301Z,27.00
2018-01-22T10:38:51.312Z,21.37
2018-01-22T10:41:17.280Z,24.47
2018-01-22T10:43:43.265Z,23.33
2018-01-22T10:46:09.243Z,20.63
2018-01-22T10:48:35.262Z,23.67
2018-01-22T10:51:01.205Z,24.20
2018-01-22T10:53:27.188Z,25.30
2018-01-22T10:55:53.156Z,23.27
2018-01-22T10:58:19.133Z,32.30
2018-01-22T11:00:45.105Z,23.30
2018-01-22T11:03:11.806Z,24.87
2018-01-22T11:05:37.801Z,23.10
2018-01-22T11:08:04.523Z,26.87
2018-01-22T11:10:30.472Z,24.00
2018-01-22T11:12:57.194Z,24.30
2018-01-22T11:15:29.421Z,22.80
2018-01-22T11:17:56.132Z,26.03
2018-01-22T11:20:22.136Z,23.73
2018-01-22T11:22:48.113Z,20.73
2018-01-22T11:25:14.089Z,26.33
2018-01-22T11:27:40.026Z,25.37
2018-01-22T11:30:06.015Z,31.93
2018-01-22T11:32:31.954Z,28.70
2018-01-22T11:34:57.900Z,24.13
2018-01-22T11:37:23.876Z,22.50
2018-01-22T11:39:49.832Z,27.10
2018-01-22T11:42:16.272Z,26.43
2018-01-22T11:44:42.223Z,27.30
2018-01-22T11:47:08.165Z,26.87
2018-01-22T11:49:34.193Z,25.43
2018-01-22T11:52:00.133Z,21.80
2018-01-22T11:54:26.109Z,24.87
2018-01-22T11:56:52.788Z,20.80
2018-01-22T11:59:18.759Z,26.90
2018-01-22T12:01:44.737Z,24.50
2018-01-22T12:04:11.416Z,24.23
2018-01-22T12:06:37.383Z,22.40
2018-01-22T12:09:03.382Z,26.07
2018-01-22T12:11:30.121Z,24.80
2018-01-22T12:13:56.804Z,34.60
2018-01-22T12:16:22.757Z,23.73
2018-01-22T12:18:48.765Z,23.80
2018-01-22T12:21:14.729Z,19.93
2018-01-22T12:23:40.684Z,20.80
2018-01-22T12:26:06.669Z,24.47
2018-01-22T12:28:32.653Z,18.83
2018-01-22T12:30:58.612Z,19.03
2018-01-22T12:33:25.333Z,18.90
2018-01-22T12:35:51.282Z,21.47
2018-01-22T12:38:17.284Z,20.40
2018-01-22T12:40:43.261Z,22.87
2018-01-22T12:43:09.216Z,24.97
2018-01-22T12:45:35.948Z,23.20
2018-01-22T12:48:01.909Z,33.07
2018-01-22T12:50:27.912Z,26.93
2018-01-22T12:52:53.874Z,28.87
2018-01-22T12:55:20.605Z,27.33
2018-01-22T12:57:46.683Z,26.20
2018-01-22T13:00:12.672Z,26.63
2018-01-22T13:02:38.644Z,25.03
2018-01-22T13:05:05.354Z,22.13
2018-01-22T13:07:31.351Z,24.53
2018-01-22T13:09:57.306Z,19.73
2018-01-22T13:12:23.269Z,26.30
2018-01-22T13:14:49.270Z,24.97
2018-01-22T13:17:15.212Z,23.63
2018-01-22T13:19:41.211Z,31.70
2018-01-22T13:22:07.899Z,26.67
2018-01-22T13:24:33.890Z,26.23
2018-01-22T13:27:00.596Z,17.50
2018-01-22T13:29:26.581Z,30.63
2018-01-22T13:31:53.297Z,23.53
2018-01-22T13:34:19.258Z,25.47
2018-01-22T13:36:46.080Z,20.63
2018-01-22T13:39:12.020Z,24.73
2018-01-22T13:41:37.988Z,25.57
2018-01-22T13:44:04.692Z,26.43
2018-01-22T13:46:30.681Z,21.20
2018-01-22T13:48:57.368Z,24.13
2018-01-22T13:51:23.309Z,22.60
2018-01-22T13:53:49.297Z,25.17
2018-01-22T13:56:15.245Z,23.23
2018-01-22T13:58:42.014Z,22.87
2018-01-22T14:01:07.988Z,26.73
2018-01-22T14:03:33.956Z,24.67
2018-01-22T14:06:00.698Z,26.17
2018-01-22T14:08:26.652Z,24.43
2018-01-22T14:10:53.380Z,28.60
2018-01-22T14:13:19.384Z,26.83
2018-01-22T14:15:45.455Z,26.43
2018-01-22T14:18:11.536Z,27.00
2018-01-22T14:20:37.512Z,29.33
2018-01-22T14:23:03.520Z,25.50
2018-01-22T14:25:29.474Z,27.87
2018-01-22T14:27:55.462Z,28.30
2018-01-22T14:30:22.174Z,29.90
2018-01-22T14:32:48.210Z,31.70
2018-01-22T14:35:14.164Z,35.20
2018-01-22T14:37:40.118Z,27.97
2018-01-22T14:40:06.937Z,26.73
2018-01-22T14:42:32.913Z,32.37
2018-01-22T14:44:59.641Z,27.20
2018-01-22T14:47:25.600Z,26.87
2018-01-22T14:49:52.342Z,31.30
2018-01-22T14:52:18.413Z,32.60
2018-01-22T14:54:44.424Z,39.43
2018-01-22T14:57:11.216Z,31.90
2018-01-22T14:59:37.233Z,29.77
2018-01-22T15:02:03.304Z,31.40
2018-01-22T15:04:29.257Z,33.00
2018-01-22T15:06:55.238Z,36.07
2018-01-22T15:09:22.068Z,30.20
2018-01-22T15:11:48.081Z,35.03
2018-01-22T15:14:14.042Z,35.23
2018-01-22T15:16:40.021Z,34.30
2018-01-22T15:19:06.041Z,34.03
2018-01-22T15:21:32.809Z,33.23
2018-01-22T15:23:58.832Z,41.30
2018-01-22T15:26:25.617Z,36.70
2018-01-22T15:28:51.565Z,37.27
2018-01-22T15:31:17.677Z,37.77
2018-01-22T15:33:43.808Z,36.43
2018-01-22T15:36:09.868Z,40.60
2018-01-22T15:38:35.859Z,36.43
2018-01-22T15:41:02.633Z,35.40
2018-01-22T15:43:28.697Z,36.73
2018-01-22T15:45:54.706Z,39.30
2018-01-22T15:48:20.732Z,35.47
2018-01-22T15:50:47.517Z,37.07
2018-01-22T15:53:13.544Z,36.37
2018-01-22T15:55:39.497Z,31.90
2018-01-22T15:58:05.492Z,35.50
2018-01-22T16:00:32.186Z,33.30
2018-01-22T16:02:58.147Z,33.87
2018-01-22T16:05:24.135Z,38.93
2018-01-22T16:07:50.112Z,36.03
2018-01-22T16:10:16.117Z,41.20
2018-01-22T16:12:42.923Z,42.17
2018-01-22T16:15:08.900Z,36.20
2018-01-22T16:17:34.869Z,36.17
2018-01-22T16:20:00.834Z,34.97
2018-01-22T16:22:26.809Z,37.90
2018-01-22T16:24:52.752Z,38.53
2018-01-22T16:27:18.759Z,39.13
2018-01-22T16:29:45.457Z,36.67
2018-01-22T16:32:11.465Z,33.07
2018-01-22T16:34:37.448Z,42.47
2018-01-22T16:37:03.410Z,35.03
2018-01-22T16:39:30.200Z,41.17
2018-01-22T16:41:56.965Z,40.20
2018-01-22T16:44:22.912Z,36.80
2018-01-22T16:46:54.980Z,33.30
2018-01-22T16:49:20.932Z,39.27
2018-01-22T16:51:46.926Z,37.60
2018-01-22T16:54:12.865Z,46.90
2018-01-22T16:56:38.845Z,37.40
2018-01-22T16:59:04.780Z,38.40
2018-01-22T17:01:30.748Z,37.17
2018-01-22T17:03:57.428Z,36.53
2018-01-22T17:06:23.445Z,36.57
2018-01-22T17:08:50.123Z,37.17
2018-01-22T17:11:16.145Z,43.83
2018-01-22T17:13:42.110Z,39.60
2018-01-22T17:16:08.101Z,38.90
2018-01-22T17:18:34.793Z,39.03
2018-01-22T17:21:00.792Z,39.87
2018-01-22T17:23:27.482Z,37.63
2018-01-22T17:25:53.481Z,38.40
2018-01-22T17:28:20.215Z,37.90
2018-01-22T17:30:46.216Z,40.17
2018-01-22T17:33:12.241Z,43.70
2018-01-22T17:35:38.197Z,38.07
2018-01-22T17:38:04.149Z,38.83
2018-01-22T17:40:30.158Z,38.50
2018-01-22T17:42:56.124Z,37.70
2018-01-22T17:45:22.121Z,42.07
2018-01-22T17:47:48.129Z,40.27
2018-01-22T17:50:14.142Z,41.70
2018-01-22T17:52:40.092Z,34.47
2018-01-22T17:55:06.785Z,38.17
2018-01-22T17:57:32.786Z,41.90
2018-01-22T17:59:59.468Z,38.47
2018-01-22T18:02:25.457Z,44.23
2018-01-22T18:04:51.411Z,37.33
2018-01-22T18:07:18.132Z,47.07
2018-01-22T18:09:44.130Z,44.80
2018-01-22T18:12:10.109Z,46.23
2018-01-22T18:14:36.194Z,50.17
2018-01-22T18:17:02.181Z,43.03
2018-01-22T18:19:28.171Z,39.77
2018-01-22T18:21:54.165Z,41.17
2018-01-22T18:24:20.130Z,37.50
2018-01-22T18:26:46.168Z,43.93
2018-01-22T18:29:12.116Z,40.50
2018-01-22T18:31:38.061Z,40.00
2018-01-22T18:34:04.089Z,39.83
2018-01-22T18:36:30.024Z,45.20
2018-01-22T18:38:56.005Z,37.33
2018-01-22T18:41:21.981Z,46.37
2018-01-22T18:43:47.932Z,40.43
2018-01-22T18:46:13.909Z,38.17
2018-01-22T18:48:39.909Z,38.90
2018-01-22T18:51:05.893Z,47.20
2018-01-22T18:53:31.869Z,34.97
2018-01-22T18:55:57.822Z,41.67
2018-01-22T18:58:23.773Z,40.87
2018-01-22T19:00:49.762Z,44.20
2018-01-22T19:03:15.725Z,38.50
2018-01-22T19:05:42.686Z,37.80
2018-01-22T19:08:08.633Z,43.27
2018-01-22T19:10:34.625Z,44.57
2018-01-22T19:13:00.662Z,43.97
2018-01-22T19:15:26.697Z,45.67
2018-01-22T19:17:53.532Z,49.70
2018-01-22T19:20:19.521Z,46.83
2018-01-22T19:22:45.735Z,41.60
2018-01-22T19:25:11.764Z,46.13
2018-01-22T19:27:38.482Z,42.97
2018-01-22T19:30:04.708Z,37.53
2018-01-22T19:32:30.692Z,38.27
2018-01-22T19:34:57.377Z,36.80
2018-01-22T19:37:23.361Z,38.10
2018-01-22T19:39:49.396Z,36.47
2018-01-22T19:42:15.346Z,36.47
2018-01-22T19:44:42.068Z,35.87
2018-01-22T19:47:08.209Z,34.40
2018-01-22T19:49:34.244Z,34.10
2018-01-22T19:52:00.255Z,33.83
2018-01-22T19:54:26.266Z,37.83
2018-01-22T19:56:52.266Z,35.60
2018-01-22T19:59:18.266Z,36.07
2018-01-22T20:01:44.294Z,32.70
2018-01-22T20:04:10.232Z,31.30
2018-01-22T20:06:36.257Z,39.17
2018-01-22T20:09:02.251Z,35.90
2018-01-22T20:11:28.550Z,32.53
2018-01-22T20:13:54.544Z,34.03
2018-01-22T20:16:21.342Z,26.77
2018-01-22T20:18:47.306Z,30.47
2018-01-22T20:21:13.348Z,36.93
2018-01-22T20:23:39.361Z,32.10
2018-01-22T20:26:05.369Z,31.70
2018-01-22T20:28:31.352Z,36.03
2018-01-22T20:30:57.330Z,30.40
2018-01-22T20:33:24.017Z,40.23
2018-01-22T20:35:49.999Z,29.60
2018-01-22T20:38:15.949Z,41.00
2018-01-22T20:40:41.980Z,43.03
2018-01-22T20:43:08.764Z,37.33
2018-01-22T20:45:34.718Z,35.90
2018-01-22T20:48:00.667Z,36.43
2018-01-22T20:50:26.674Z,43.03
2018-01-22T20:52:52.700Z,38.60
2018-01-22T20:55:18.703Z,36.13
2018-01-22T20:57:44.729Z,34.80
2018-01-22T21:00:10.772Z,30.83
2018-01-22T21:02:36.746Z,34.80
2018-01-22T21:05:02.724Z,35.97
2018-01-22T21:07:28.708Z,34.47
2018-01-22T21:09:55.476Z,36.57
2018-01-22T21:12:21.534Z,33.67
2018-01-22T21:14:47.560Z,39.30
2018-01-22T21:17:13.549Z,37.83
2018-01-22T21:19:40.253Z,33.83
2018-01-22T21:22:06.287Z,34.83
2018-01-22T21:24:32.279Z,33.00
2018-01-22T21:26:58.273Z,31.93
2018-01-22T21:29:24.266Z,34.20
2018-01-22T21:31:51.004Z,35.93
2018-01-22T21:34:17.002Z,32.53
2018-01-22T21:36:43.015Z,29.93
2018-01-22T21:39:09.017Z,35.53
2018-01-22T21:41:35.777Z,32.87
2018-01-22T21:44:02.511Z,34.83
2018-01-22T21:46:28.509Z,32.27
2018-01-22T21:48:54.458Z,32.40
2018-01-22T21:51:20.465Z,26.90
2018-01-22T21:53:46.456Z,32.97
2018-01-22T21:56:12.401Z,29.33
2018-01-22T21:58:38.404Z,33.10
2018-01-22T22:01:04.447Z,27.20
2018-01-22T22:03:30.454Z,32.63
2018-01-22T22:05:56.527Z,37.50
2018-01-22T22:08:22.512Z,31.30
2018-01-22T22:10:48.504Z,35.40
2018-01-22T22:13:14.518Z,36.43
2018-01-22T22:15:40.579Z,29.97
2018-01-22T22:18:06.522Z,30.17
2018-01-22T22:20:32.505Z,31.53
2018-01-22T22:22:58.468Z,36.00
2018-01-22T22:25:24.413Z,32.10
2018-01-22T22:27:50.401Z,34.30
2018-01-22T22:30:16.351Z,29.93
2018-01-22T22:32:42.296Z,29.50
2018-01-22T22:35:08.275Z,32.93
2018-01-22T22:37:34.250Z,33.90
2018-01-22T22:40:00.254Z,32.37
2018-01-22T22:42:26.189Z,33.37
2018-01-22T22:44:52.173Z,30.07
2018-01-22T22:47:18.187Z,28.97
2018-01-22T22:49:44.125Z,31.53
2018-01-22T22:52:10.136Z,30.00
2018-01-22T22:54:36.127Z,34.37
2018-01-22T22:57:02.162Z,31.83
2018-01-22T22:59:28.109Z,31.90
2018-01-22T23:01:54.089Z,31.73
2018-01-22T23:04:20.790Z,29.47
2018-01-22T23:06:46.769Z,35.63
2018-01-22T23:09:12.788Z,32.60
2018-01-22T23:11:38.758Z,32.47
2018-01-22T23:14:05.476Z,31.93
2018-01-22T23:16:31.464Z,36.47
2018-01-22T23:18:57.417Z,31.30
2018-01-22T23:21:23.434Z,31.00
2018-01-22T23:23:49.400Z,29.13
2018-01-22T23:26:15.381Z,31.97
2018-01-22T23:28:42.077Z,33.37
2018-01-22T23:31:08.128Z,27.77
2018-01-22T23:33:34.136Z,34.60
2018-01-22T23:36:00.081Z,33.10
2018-01-22T23:38:26.061Z,34.50
2018-01-22T23:40:52.025Z,30.20
2018-01-22T23:43:17.988Z,32.43
2018-01-22T23:45:43.973Z,33.30
2018-01-22T23:48:10.688Z,34.67
2018-01-22T23:50:36.640Z,31.40
2018-01-22T23:53:02.743Z,28.83
2018-01-22T23:55:28.684Z,34.17
2018-01-22T23:57:54.672Z,30.90
